< < Back
Terminal Aerodrome Forecast


Current Version              Previous Versions:   1  2  3  4  5  6  7  8  9  

Terminal Aerodrome Forecast

044
FTUS42 KJAX 181100
TAFGNV
TAF
KGNV 181123Z 1812/1912 00000KT P6SM FEW250
      TEMPO 1812/1813 4SM BR
     FM181500 VRB03KT P6SM SCT040 SCT250
     FM182000 10006KT P6SM SCT035
     FM190200 00000KT P6SM SCT250
     FM191000 00000KT 4SM BR FEW010 SCT250=

Latest METAR

051
SAUS70 KWBC 181100 RRM
MTRGNV
METAR KGNV 181053Z 00000KT 10SM CLR 21/20 A2991 RMK AO2 SLP125
T02060200


USA.gov is the U.S. government's official web portal to all federal, state and local government web resources and services.